sensor_id;sensor_type;location;lat;lon;timestamp;P1;durP1;ratioP1;P2;durP2;ratioP2
35022;SDS011;21214;44.912;8.204;2023-12-22T00:02:12;30.30;;;19.65;;
35022;SDS011;21214;44.912;8.204;2023-12-22T00:04:38;29.05;;;20.23;;
35022;SDS011;21214;44.912;8.204;2023-12-22T00:07:04;32.45;;;21.30;;
35022;SDS011;21214;44.912;8.204;2023-12-22T00:09:30;30.60;;;20.70;;
35022;SDS011;21214;44.912;8.204;2023-12-22T00:11:56;25.50;;;19.38;;
35022;SDS011;21214;44.912;8.204;2023-12-22T00:14:21;29.20;;;19.63;;
35022;SDS011;21214;44.912;8.204;2023-12-22T00:16:47;25.05;;;19.08;;
35022;SDS011;21214;44.912;8.204;2023-12-22T00:19:12;27.90;;;19.67;;
35022;SDS011;21214;44.912;8.204;2023-12-22T00:21:37;27.40;;;19.88;;
35022;SDS011;21214;44.912;8.204;2023-12-22T00:24:03;27.92;;;19.50;;
35022;SDS011;21214;44.912;8.204;2023-12-22T00:26:29;28.63;;;19.92;;
35022;SDS011;21214;44.912;8.204;2023-12-22T00:28:54;26.77;;;20.27;;
35022;SDS011;21214;44.912;8.204;2023-12-22T00:31:20;27.48;;;20.90;;
35022;SDS011;21214;44.912;8.204;2023-12-22T00:33:45;32.00;;;20.63;;
35022;SDS011;21214;44.912;8.204;2023-12-22T00:36:11;30.77;;;20.27;;
35022;SDS011;21214;44.912;8.204;2023-12-22T00:38:37;29.23;;;20.67;;
35022;SDS011;21214;44.912;8.204;2023-12-22T00:41:02;26.88;;;19.70;;
35022;SDS011;21214;44.912;8.204;2023-12-22T00:43:28;32.13;;;20.00;;
35022;SDS011;21214;44.912;8.204;2023-12-22T00:45:53;31.63;;;20.27;;
35022;SDS011;21214;44.912;8.204;2023-12-22T00:48:19;28.95;;;20.52;;
35022;SDS011;21214;44.912;8.204;2023-12-22T00:50:44;26.48;;;19.65;;
35022;SDS011;21214;44.912;8.204;2023-12-22T00:53:09;29.88;;;20.25;;
35022;SDS011;21214;44.912;8.204;2023-12-22T00:55:35;26.33;;;19.33;;
35022;SDS011;21214;44.912;8.204;2023-12-22T00:58:00;28.48;;;20.85;;
35022;SDS011;21214;44.912;8.204;2023-12-22T01:00:26;29.02;;;19.65;;
35022;SDS011;21214;44.912;8.204;2023-12-22T01:02:51;28.27;;;20.15;;
35022;SDS011;21214;44.912;8.204;2023-12-22T01:05:17;23.25;;;18.23;;
35022;SDS011;21214;44.912;8.204;2023-12-22T01:07:42;29.27;;;19.60;;
35022;SDS011;21214;44.912;8.204;2023-12-22T01:10:08;25.30;;;17.83;;
35022;SDS011;21214;44.912;8.204;2023-12-22T01:12:34;24.45;;;18.55;;
35022;SDS011;21214;44.912;8.204;2023-12-22T01:14:59;28.38;;;20.98;;
35022;SDS011;21214;44.912;8.204;2023-12-22T01:17:25;26.70;;;20.10;;
35022;SDS011;21214;44.912;8.204;2023-12-22T01:19:50;28.05;;;19.08;;
35022;SDS011;21214;44.912;8.204;2023-12-22T01:22:16;29.75;;;19.88;;
35022;SDS011;21214;44.912;8.204;2023-12-22T01:24:42;29.65;;;20.50;;
35022;SDS011;21214;44.912;8.204;2023-12-22T01:27:09;28.15;;;19.17;;
35022;SDS011;21214;44.912;8.204;2023-12-22T01:29:35;29.13;;;18.88;;
35022;SDS011;21214;44.912;8.204;2023-12-22T01:32:00;24.45;;;19.13;;
35022;SDS011;21214;44.912;8.204;2023-12-22T01:34:25;26.65;;;19.10;;
35022;SDS011;21214;44.912;8.204;2023-12-22T01:36:51;28.17;;;18.60;;
35022;SDS011;21214;44.912;8.204;2023-12-22T01:39:16;27.63;;;18.92;;
35022;SDS011;21214;44.912;8.204;2023-12-22T01:41:42;23.52;;;17.65;;
35022;SDS011;21214;44.912;8.204;2023-12-22T01:44:08;25.52;;;17.33;;
35022;SDS011;21214;44.912;8.204;2023-12-22T01:46:33;25.15;;;17.23;;
35022;SDS011;21214;44.912;8.204;2023-12-22T01:49:00;21.27;;;15.68;;
35022;SDS011;21214;44.912;8.204;2023-12-22T01:51:31;20.15;;;15.05;;
35022;SDS011;21214;44.912;8.204;2023-12-22T01:53:58;21.15;;;14.55;;
35022;SDS011;21214;44.912;8.204;2023-12-22T01:56:25;19.80;;;13.60;;
35022;SDS011;21214;44.912;8.204;2023-12-22T01:58:51;17.42;;;10.90;;
35022;SDS011;21214;44.912;8.204;2023-12-22T02:01:20;23.55;;;16.05;;
35022;SDS011;21214;44.912;8.204;2023-12-22T02:03:50;18.70;;;13.40;;
35022;SDS011;21214;44.912;8.204;2023-12-22T02:06:19;16.48;;;11.63;;
35022;SDS011;21214;44.912;8.204;2023-12-22T02:08:48;11.10;;;8.88;;
35022;SDS011;21214;44.912;8.204;2023-12-22T02:11:14;20.30;;;14.32;;
35022;SDS011;21214;44.912;8.204;2023-12-22T02:13:40;17.92;;;12.93;;
35022;SDS011;21214;44.912;8.204;2023-12-22T02:16:11;13.00;;;11.13;;
35022;SDS011;21214;44.912;8.204;2023-12-22T02:19:27;10.50;;;8.98;;
35022;SDS011;21214;44.912;8.204;2023-12-22T02:22:07;11.32;;;10.05;;
35022;SDS011;21214;44.912;8.204;2023-12-22T02:24:33;11.55;;;8.95;;
35022;SDS011;21214;44.912;8.204;2023-12-22T02:27:03;10.82;;;9.00;;
35022;SDS011;21214;44.912;8.204;2023-12-22T02:29:35;10.90;;;7.53;;
35022;SDS011;21214;44.912;8.204;2023-12-22T02:32:04;7.55;;;5.80;;
35022;SDS011;21214;44.912;8.204;2023-12-22T02:34:35;9.60;;;5.50;;
35022;SDS011;21214;44.912;8.204;2023-12-22T02:37:05;5.35;;;4.53;;
35022;SDS011;21214;44.912;8.204;2023-12-22T02:39:34;9.43;;;4.38;;
35022;SDS011;21214;44.912;8.204;2023-12-22T02:42:00;5.00;;;3.83;;
35022;SDS011;21214;44.912;8.204;2023-12-22T02:44:27;4.72;;;3.15;;
35022;SDS011;21214;44.912;8.204;2023-12-22T02:46:53;5.15;;;3.08;;
35022;SDS011;21214;44.912;8.204;2023-12-22T02:49:18;4.65;;;3.45;;
35022;SDS011;21214;44.912;8.204;2023-12-22T02:51:44;7.25;;;3.05;;
35022;SDS011;21214;44.912;8.204;2023-12-22T02:54:09;3.67;;;3.20;;
35022;SDS011;21214;44.912;8.204;2023-12-22T02:56:35;4.65;;;2.97;;
35022;SDS011;21214;44.912;8.204;2023-12-22T02:59:00;6.30;;;2.85;;
35022;SDS011;21214;44.912;8.204;2023-12-22T03:01:26;6.03;;;2.42;;
35022;SDS011;21214;44.912;8.204;2023-12-22T03:03:51;3.85;;;1.80;;
35022;SDS011;21214;44.912;8.204;2023-12-22T03:06:17;4.18;;;1.92;;
35022;SDS011;21214;44.912;8.204;2023-12-22T03:08:42;3.33;;;1.45;;
35022;SDS011;21214;44.912;8.204;2023-12-22T03:11:07;2.35;;;1.70;;
35022;SDS011;21214;44.912;8.204;2023-12-22T03:13:33;1.77;;;1.10;;
35022;SDS011;21214;44.912;8.204;2023-12-22T03:15:58;3.50;;;0.95;;
35022;SDS011;21214;44.912;8.204;2023-12-22T03:18:24;1.42;;;0.90;;
35022;SDS011;21214;44.912;8.204;2023-12-22T03:20:49;1.75;;;0.77;;
35022;SDS011;21214;44.912;8.204;2023-12-22T03:23:14;1.60;;;0.70;;
35022;SDS011;21214;44.912;8.204;2023-12-22T03:25:40;1.70;;;0.73;;
35022;SDS011;21214;44.912;8.204;2023-12-22T03:28:05;1.70;;;0.80;;
35022;SDS011;21214;44.912;8.204;2023-12-22T03:30:31;2.78;;;0.80;;
35022;SDS011;21214;44.912;8.204;2023-12-22T03:32:56;3.60;;;0.80;;
35022;SDS011;21214;44.912;8.204;2023-12-22T03:35:22;1.25;;;0.60;;
35022;SDS011;21214;44.912;8.204;2023-12-22T03:37:47;0.85;;;0.73;;
35022;SDS011;21214;44.912;8.204;2023-12-22T03:40:13;1.60;;;0.88;;
35022;SDS011;21214;44.912;8.204;2023-12-22T03:42:38;1.38;;;0.70;;
35022;SDS011;21214;44.912;8.204;2023-12-22T03:45:04;0.50;;;0.50;;
35022;SDS011;21214;44.912;8.204;2023-12-22T03:47:30;2.80;;;0.65;;
35022;SDS011;21214;44.912;8.204;2023-12-22T03:49:55;1.80;;;1.08;;
35022;SDS011;21214;44.912;8.204;2023-12-22T03:52:20;1.80;;;0.70;;
35022;SDS011;21214;44.912;8.204;2023-12-22T03:54:46;0.52;;;0.52;;
35022;SDS011;21214;44.912;8.204;2023-12-22T03:57:11;1.17;;;0.40;;
35022;SDS011;21214;44.912;8.204;2023-12-22T03:59:36;2.25;;;0.60;;
35022;SDS011;21214;44.912;8.204;2023-12-22T04:02:02;1.00;;;0.55;;
35022;SDS011;21214;44.912;8.204;2023-12-22T04:04:27;0.77;;;0.77;;
35022;SDS011;21214;44.912;8.204;2023-12-22T04:06:53;1.35;;;0.60;;
35022;SDS011;21214;44.912;8.204;2023-12-22T04:09:19;0.60;;;0.60;;
35022;SDS011;21214;44.912;8.204;2023-12-22T04:11:45;1.10;;;0.60;;
35022;SDS011;21214;44.912;8.204;2023-12-22T04:14:10;0.90;;;0.52;;
35022;SDS011;21214;44.912;8.204;2023-12-22T04:16:36;2.88;;;0.40;;
35022;SDS011;21214;44.912;8.204;2023-12-22T04:19:02;0.70;;;0.70;;
35022;SDS011;21214;44.912;8.204;2023-12-22T04:21:28;0.52;;;0.52;;
35022;SDS011;21214;44.912;8.204;2023-12-22T04:23:53;1.30;;;0.70;;
35022;SDS011;21214;44.912;8.204;2023-12-22T04:26:19;3.03;;;0.52;;
35022;SDS011;21214;44.912;8.204;2023-12-22T04:28:44;1.42;;;0.38;;
35022;SDS011;21214;44.912;8.204;2023-12-22T04:31:10;0.40;;;0.40;;
35022;SDS011;21214;44.912;8.204;2023-12-22T04:33:35;2.60;;;0.60;;
35022;SDS011;21214;44.912;8.204;2023-12-22T04:36:00;0.50;;;0.50;;
35022;SDS011;21214;44.912;8.204;2023-12-22T04:38:27;3.05;;;0.40;;
35022;SDS011;21214;44.912;8.204;2023-12-22T04:40:52;2.90;;;0.70;;
35022;SDS011;21214;44.912;8.204;2023-12-22T04:43:18;0.30;;;0.30;;
35022;SDS011;21214;44.912;8.204;2023-12-22T04:45:43;0.98;;;0.60;;
35022;SDS011;21214;44.912;8.204;2023-12-22T04:48:09;1.00;;;0.90;;
35022;SDS011;21214;44.912;8.204;2023-12-22T04:50:34;1.60;;;0.60;;
35022;SDS011;21214;44.912;8.204;2023-12-22T04:53:00;1.10;;;0.60;;
35022;SDS011;21214;44.912;8.204;2023-12-22T04:55:25;1.17;;;0.60;;
35022;SDS011;21214;44.912;8.204;2023-12-22T04:57:50;0.82;;;0.82;;
35022;SDS011;21214;44.912;8.204;2023-12-22T05:00:16;1.10;;;0.75;;
35022;SDS011;21214;44.912;8.204;2023-12-22T05:02:42;0.60;;;0.60;;
35022;SDS011;21214;44.912;8.204;2023-12-22T05:05:07;2.55;;;0.70;;
35022;SDS011;21214;44.912;8.204;2023-12-22T05:07:33;0.45;;;0.45;;
35022;SDS011;21214;44.912;8.204;2023-12-22T05:10:00;0.40;;;0.40;;
35022;SDS011;21214;44.912;8.204;2023-12-22T05:12:26;1.92;;;0.70;;
35022;SDS011;21214;44.912;8.204;2023-12-22T05:14:51;1.38;;;0.60;;
35022;SDS011;21214;44.912;8.204;2023-12-22T05:17:17;0.52;;;0.40;;
35022;SDS011;21214;44.912;8.204;2023-12-22T05:19:42;0.60;;;0.60;;
35022;SDS011;21214;44.912;8.204;2023-12-22T05:22:08;1.98;;;0.50;;
35022;SDS011;21214;44.912;8.204;2023-12-22T05:24:33;1.15;;;0.60;;
35022;SDS011;21214;44.912;8.204;2023-12-22T05:26:58;1.58;;;0.60;;
35022;SDS011;21214;44.912;8.204;2023-12-22T05:29:24;0.90;;;0.60;;
35022;SDS011;21214;44.912;8.204;2023-12-22T05:31:49;1.30;;;0.80;;
35022;SDS011;21214;44.912;8.204;2023-12-22T05:34:15;0.60;;;0.60;;
35022;SDS011;21214;44.912;8.204;2023-12-22T05:36:40;0.85;;;0.57;;
35022;SDS011;21214;44.912;8.204;2023-12-22T05:39:06;0.60;;;0.50;;
35022;SDS011;21214;44.912;8.204;2023-12-22T05:41:34;2.20;;;0.60;;
35022;SDS011;21214;44.912;8.204;2023-12-22T05:44:01;0.85;;;0.60;;
35022;SDS011;21214;44.912;8.204;2023-12-22T05:46:28;1.10;;;0.60;;
35022;SDS011;21214;44.912;8.204;2023-12-22T05:48:53;1.55;;;0.80;;
35022;SDS011;21214;44.912;8.204;2023-12-22T05:51:22;2.50;;;0.60;;
35022;SDS011;21214;44.912;8.204;2023-12-22T05:53:49;1.65;;;1.15;;
35022;SDS011;21214;44.912;8.204;2023-12-22T05:56:18;1.10;;;0.88;;
35022;SDS011;21214;44.912;8.204;2023-12-22T05:58:45;2.13;;;0.70;;
35022;SDS011;21214;44.912;8.204;2023-12-22T06:01:18;1.42;;;0.68;;
35022;SDS011;21214;44.912;8.204;2023-12-22T06:03:44;1.75;;;1.05;;
35022;SDS011;21214;44.912;8.204;2023-12-22T06:06:10;1.23;;;1.10;;
35022;SDS011;21214;44.912;8.204;2023-12-22T06:08:36;1.00;;;0.80;;
35022;SDS011;21214;44.912;8.204;2023-12-22T06:11:02;2.65;;;0.80;;
35022;SDS011;21214;44.912;8.204;2023-12-22T06:13:28;0.95;;;0.93;;
35022;SDS011;21214;44.912;8.204;2023-12-22T06:15:53;0.77;;;0.75;;
35022;SDS011;21214;44.912;8.204;2023-12-22T06:18:19;0.90;;;0.70;;
35022;SDS011;21214;44.912;8.204;2023-12-22T06:20:44;3.65;;;1.00;;
35022;SDS011;21214;44.912;8.204;2023-12-22T06:23:10;3.90;;;1.00;;
35022;SDS011;21214;44.912;8.204;2023-12-22T06:25:35;1.85;;;0.98;;
35022;SDS011;21214;44.912;8.204;2023-12-22T06:28:00;2.50;;;0.70;;
35022;SDS011;21214;44.912;8.204;2023-12-22T06:30:26;1.77;;;0.73;;
35022;SDS011;21214;44.912;8.204;2023-12-22T06:32:52;1.13;;;0.95;;
35022;SDS011;21214;44.912;8.204;2023-12-22T06:35:17;1.38;;;0.88;;
35022;SDS011;21214;44.912;8.204;2023-12-22T06:37:43;3.55;;;0.93;;
35022;SDS011;21214;44.912;8.204;2023-12-22T06:40:08;0.95;;;0.80;;
35022;SDS011;21214;44.912;8.204;2023-12-22T06:42:34;4.68;;;1.13;;
35022;SDS011;21214;44.912;8.204;2023-12-22T06:44:59;1.67;;;1.02;;
35022;SDS011;21214;44.912;8.204;2023-12-22T06:47:25;3.30;;;1.00;;
35022;SDS011;21214;44.912;8.204;2023-12-22T06:49:52;3.15;;;1.50;;
35022;SDS011;21214;44.912;8.204;2023-12-22T06:52:18;1.10;;;1.00;;
35022;SDS011;21214;44.912;8.204;2023-12-22T06:54:43;3.20;;;1.42;;
35022;SDS011;21214;44.912;8.204;2023-12-22T06:57:10;2.33;;;1.70;;
35022;SDS011;21214;44.912;8.204;2023-12-22T06:59:36;3.13;;;1.70;;
35022;SDS011;21214;44.912;8.204;2023-12-22T07:02:01;1.30;;;1.20;;
35022;SDS011;21214;44.912;8.204;2023-12-22T07:04:26;3.25;;;1.17;;
35022;SDS011;21214;44.912;8.204;2023-12-22T07:06:52;0.90;;;0.90;;
35022;SDS011;21214;44.912;8.204;2023-12-22T07:11:44;1.33;;;0.70;;
35022;SDS011;21214;44.912;8.204;2023-12-22T07:16:40;3.95;;;1.10;;
35022;SDS011;21214;44.912;8.204;2023-12-22T07:19:05;1.10;;;1.00;;
35022;SDS011;21214;44.912;8.204;2023-12-22T07:21:31;3.15;;;1.00;;
35022;SDS011;21214;44.912;8.204;2023-12-22T07:23:56;2.08;;;1.08;;
35022;SDS011;21214;44.912;8.204;2023-12-22T07:26:23;0.93;;;0.82;;
35022;SDS011;21214;44.912;8.204;2023-12-22T07:28:49;3.63;;;0.80;;
35022;SDS011;21214;44.912;8.204;2023-12-22T07:31:15;1.02;;;0.90;;
35022;SDS011;21214;44.912;8.204;2023-12-22T07:33:40;1.83;;;0.80;;
35022;SDS011;21214;44.912;8.204;2023-12-22T07:36:06;2.83;;;1.40;;
35022;SDS011;21214;44.912;8.204;2023-12-22T07:38:32;3.45;;;1.75;;
35022;SDS011;21214;44.912;8.204;2023-12-22T07:40:58;1.33;;;1.00;;
35022;SDS011;21214;44.912;8.204;2023-12-22T07:43:24;1.00;;;0.90;;
35022;SDS011;21214;44.912;8.204;2023-12-22T07:45:49;4.53;;;1.42;;
35022;SDS011;21214;44.912;8.204;2023-12-22T07:48:16;2.22;;;1.52;;
35022;SDS011;21214;44.912;8.204;2023-12-22T07:50:42;4.70;;;1.38;;
35022;SDS011;21214;44.912;8.204;2023-12-22T07:53:08;0.90;;;0.90;;
35022;SDS011;21214;44.912;8.204;2023-12-22T07:55:34;1.20;;;0.95;;
35022;SDS011;21214;44.912;8.204;2023-12-22T07:57:59;5.43;;;1.40;;
35022;SDS011;21214;44.912;8.204;2023-12-22T08:00:25;1.27;;;1.13;;
35022;SDS011;21214;44.912;8.204;2023-12-22T08:02:50;8.20;;;2.92;;
35022;SDS011;21214;44.912;8.204;2023-12-22T08:05:17;5.97;;;3.47;;
35022;SDS011;21214;44.912;8.204;2023-12-22T08:07:44;7.47;;;2.97;;
35022;SDS011;21214;44.912;8.204;2023-12-22T08:10:09;4.85;;;3.30;;
35022;SDS011;21214;44.912;8.204;2023-12-22T08:12:35;5.78;;;2.80;;
35022;SDS011;21214;44.912;8.204;2023-12-22T08:15:01;7.40;;;2.95;;
35022;SDS011;21214;44.912;8.204;2023-12-22T08:17:27;5.00;;;2.63;;
35022;SDS011;21214;44.912;8.204;2023-12-22T08:19:52;2.63;;;2.10;;
35022;SDS011;21214;44.912;8.204;2023-12-22T08:22:18;3.92;;;1.98;;
35022;SDS011;21214;44.912;8.204;2023-12-22T08:24:43;2.60;;;1.98;;
35022;SDS011;21214;44.912;8.204;2023-12-22T08:27:09;5.28;;;1.80;;
35022;SDS011;21214;44.912;8.204;2023-12-22T08:29:34;4.75;;;1.48;;
35022;SDS011;21214;44.912;8.204;2023-12-22T08:32:00;3.15;;;1.67;;
35022;SDS011;21214;44.912;8.204;2023-12-22T08:34:27;2.80;;;1.42;;
35022;SDS011;21214;44.912;8.204;2023-12-22T08:36:52;2.78;;;1.25;;
35022;SDS011;21214;44.912;8.204;2023-12-22T08:39:18;1.58;;;1.20;;
35022;SDS011;21214;44.912;8.204;2023-12-22T08:41:44;2.67;;;1.52;;
35022;SDS011;21214;44.912;8.204;2023-12-22T08:44:10;4.25;;;1.10;;
35022;SDS011;21214;44.912;8.204;2023-12-22T08:46:36;1.98;;;1.10;;
35022;SDS011;21214;44.912;8.204;2023-12-22T08:49:02;1.73;;;1.10;;
35022;SDS011;21214;44.912;8.204;2023-12-22T08:51:28;5.65;;;1.30;;
35022;SDS011;21214;44.912;8.204;2023-12-22T08:53:54;1.95;;;1.10;;
35022;SDS011;21214;44.912;8.204;2023-12-22T08:56:20;1.25;;;1.15;;
35022;SDS011;21214;44.912;8.204;2023-12-22T08:58:52;3.17;;;1.20;;
35022;SDS011;21214;44.912;8.204;2023-12-22T09:01:20;1.50;;;1.20;;
35022;SDS011;21214;44.912;8.204;2023-12-22T09:03:47;3.58;;;1.08;;
35022;SDS011;21214;44.912;8.204;2023-12-22T09:06:16;1.67;;;1.25;;
35022;SDS011;21214;44.912;8.204;2023-12-22T09:08:43;2.38;;;1.48;;
35022;SDS011;21214;44.912;8.204;2023-12-22T09:11:12;7.80;;;1.88;;
35022;SDS011;21214;44.912;8.204;2023-12-22T09:13:42;4.57;;;1.80;;
35022;SDS011;21214;44.912;8.204;2023-12-22T09:16:08;2.63;;;1.80;;
35022;SDS011;21214;44.912;8.204;2023-12-22T09:18:34;4.32;;;2.10;;
35022;SDS011;21214;44.912;8.204;2023-12-22T09:21:01;5.90;;;2.05;;
35022;SDS011;21214;44.912;8.204;2023-12-22T09:23:27;2.60;;;1.77;;
35022;SDS011;21214;44.912;8.204;2023-12-22T09:25:53;2.15;;;1.75;;
35022;SDS011;21214;44.912;8.204;2023-12-22T09:28:19;4.40;;;1.70;;
35022;SDS011;21214;44.912;8.204;2023-12-22T09:30:45;2.70;;;1.77;;
35022;SDS011;21214;44.912;8.204;2023-12-22T09:33:10;2.38;;;1.70;;
35022;SDS011;21214;44.912;8.204;2023-12-22T09:35:37;1.95;;;1.73;;
35022;SDS011;21214;44.912;8.204;2023-12-22T09:38:06;3.03;;;1.48;;
35022;SDS011;21214;44.912;8.204;2023-12-22T09:40:33;3.22;;;1.60;;
35022;SDS011;21214;44.912;8.204;2023-12-22T09:43:00;2.60;;;1.52;;
35022;SDS011;21214;44.912;8.204;2023-12-22T09:45:27;3.30;;;1.50;;
35022;SDS011;21214;44.912;8.204;2023-12-22T09:47:55;1.63;;;1.27;;
35022;SDS011;21214;44.912;8.204;2023-12-22T09:50:21;1.45;;;1.00;;
35022;SDS011;21214;44.912;8.204;2023-12-22T09:52:48;1.02;;;0.95;;
35022;SDS011;21214;44.912;8.204;2023-12-22T09:55:14;5.90;;;1.30;;
35022;SDS011;21214;44.912;8.204;2023-12-22T09:57:40;2.42;;;1.60;;
35022;SDS011;21214;44.912;8.204;2023-12-22T10:00:10;3.80;;;1.40;;
35022;SDS011;21214;44.912;8.204;2023-12-22T10:02:38;3.38;;;1.60;;
35022;SDS011;21214;44.912;8.204;2023-12-22T10:05:04;3.33;;;1.40;;
35022;SDS011;21214;44.912;8.204;2023-12-22T10:07:33;2.15;;;1.60;;
35022;SDS011;21214;44.912;8.204;2023-12-22T10:09:59;2.95;;;1.90;;
35022;SDS011;21214;44.912;8.204;2023-12-22T10:12:26;1.80;;;1.70;;
35022;SDS011;21214;44.912;8.204;2023-12-22T10:14:54;5.07;;;1.75;;
35022;SDS011;21214;44.912;8.204;2023-12-22T10:17:20;4.63;;;1.52;;
35022;SDS011;21214;44.912;8.204;2023-12-22T10:19:46;3.67;;;1.58;;
35022;SDS011;21214;44.912;8.204;2023-12-22T10:22:11;2.97;;;1.30;;
35022;SDS011;21214;44.912;8.204;2023-12-22T10:27:10;1.20;;;1.02;;
35022;SDS011;21214;44.912;8.204;2023-12-22T10:29:36;4.70;;;1.27;;
35022;SDS011;21214;44.912;8.204;2023-12-22T10:32:02;2.72;;;1.15;;
35022;SDS011;21214;44.912;8.204;2023-12-22T10:34:29;1.25;;;0.82;;
35022;SDS011;21214;44.912;8.204;2023-12-22T10:36:56;2.30;;;0.70;;
35022;SDS011;21214;44.912;8.204;2023-12-22T10:39:21;3.22;;;0.73;;
35022;SDS011;21214;44.912;8.204;2023-12-22T10:41:48;0.95;;;0.73;;
35022;SDS011;21214;44.912;8.204;2023-12-22T10:44:16;3.60;;;0.90;;
35022;SDS011;21214;44.912;8.204;2023-12-22T10:46:46;0.80;;;0.80;;
35022;SDS011;21214;44.912;8.204;2023-12-22T10:49:12;1.67;;;0.98;;
35022;SDS011;21214;44.912;8.204;2023-12-22T10:51:37;7.50;;;1.35;;
35022;SDS011;21214;44.912;8.204;2023-12-22T10:54:04;2.35;;;1.50;;
35022;SDS011;21214;44.912;8.204;2023-12-22T10:56:31;2.47;;;1.15;;
35022;SDS011;21214;44.912;8.204;2023-12-22T10:58:56;0.98;;;0.85;;
35022;SDS011;21214;44.912;8.204;2023-12-22T11:01:23;2.20;;;0.85;;
35022;SDS011;21214;44.912;8.204;2023-12-22T11:03:57;2.50;;;1.13;;
35022;SDS011;21214;44.912;8.204;2023-12-22T11:06:27;1.10;;;1.00;;
35022;SDS011;21214;44.912;8.204;2023-12-22T11:08:54;16.50;;;2.58;;
35022;SDS011;21214;44.912;8.204;2023-12-22T11:11:33;9.18;;;1.40;;
35022;SDS011;21214;44.912;8.204;2023-12-22T11:14:00;3.15;;;1.00;;
35022;SDS011;21214;44.912;8.204;2023-12-22T11:16:27;1.20;;;0.90;;
35022;SDS011;21214;44.912;8.204;2023-12-22T11:18:54;0.80;;;0.80;;
35022;SDS011;21214;44.912;8.204;2023-12-22T11:21:23;8.25;;;1.30;;
35022;SDS011;21214;44.912;8.204;2023-12-22T11:23:50;5.75;;;1.50;;
35022;SDS011;21214;44.912;8.204;2023-12-22T11:26:17;4.97;;;1.75;;
35022;SDS011;21214;44.912;8.204;2023-12-22T11:28:47;4.90;;;1.50;;
35022;SDS011;21214;44.912;8.204;2023-12-22T11:31:14;2.30;;;1.50;;
35022;SDS011;21214;44.912;8.204;2023-12-22T11:33:43;4.70;;;1.50;;
35022;SDS011;21214;44.912;8.204;2023-12-22T11:36:11;2.35;;;1.50;;
35022;SDS011;21214;44.912;8.204;2023-12-22T11:38:37;2.25;;;1.00;;
35022;SDS011;21214;44.912;8.204;2023-12-22T11:41:04;1.33;;;1.08;;
35022;SDS011;21214;44.912;8.204;2023-12-22T11:43:31;3.25;;;1.75;;
35022;SDS011;21214;44.912;8.204;2023-12-22T11:46:04;5.28;;;1.10;;
35022;SDS011;21214;44.912;8.204;2023-12-22T11:48:30;1.75;;;1.17;;
35022;SDS011;21214;44.912;8.204;2023-12-22T11:50:59;1.30;;;1.02;;
35022;SDS011;21214;44.912;8.204;2023-12-22T11:53:27;1.67;;;1.00;;
35022;SDS011;21214;44.912;8.204;2023-12-22T11:55:59;3.00;;;1.08;;
35022;SDS011;21214;44.912;8.204;2023-12-22T11:58:33;2.45;;;1.08;;
35022;SDS011;21214;44.912;8.204;2023-12-22T12:01:18;1.58;;;1.15;;
35022;SDS011;21214;44.912;8.204;2023-12-22T12:03:48;19.73;;;2.75;;
35022;SDS011;21214;44.912;8.204;2023-12-22T12:08:51;10.13;;;1.90;;
35022;SDS011;21214;44.912;8.204;2023-12-22T12:11:18;2.97;;;1.17;;
35022;SDS011;21214;44.912;8.204;2023-12-22T12:13:47;2.78;;;0.80;;
35022;SDS011;21214;44.912;8.204;2023-12-22T12:16:14;0.98;;;0.88;;
35022;SDS011;21214;44.912;8.204;2023-12-22T12:21:10;1.13;;;0.75;;
35022;SDS011;21214;44.912;8.204;2023-12-22T12:23:37;3.63;;;0.88;;
35022;SDS011;21214;44.912;8.204;2023-12-22T12:26:06;1.08;;;0.73;;
35022;SDS011;21214;44.912;8.204;2023-12-22T12:28:33;2.47;;;0.90;;
35022;SDS011;21214;44.912;8.204;2023-12-22T12:31:00;2.00;;;1.10;;
35022;SDS011;21214;44.912;8.204;2023-12-22T12:33:27;2.15;;;1.20;;
35022;SDS011;21214;44.912;8.204;2023-12-22T12:35:54;1.95;;;1.00;;
35022;SDS011;21214;44.912;8.204;2023-12-22T12:39:06;2.15;;;0.90;;
35022;SDS011;21214;44.912;8.204;2023-12-22T12:41:30;1.65;;;0.68;;
35022;SDS011;21214;44.912;8.204;2023-12-22T12:43:58;3.67;;;1.08;;
35022;SDS011;21214;44.912;8.204;2023-12-22T12:46:38;2.47;;;0.98;;
35022;SDS011;21214;44.912;8.204;2023-12-22T12:49:05;5.72;;;1.20;;
35022;SDS011;21214;44.912;8.204;2023-12-22T12:51:38;3.03;;;0.90;;
35022;SDS011;21214;44.912;8.204;2023-12-22T12:54:05;1.58;;;1.15;;
35022;SDS011;21214;44.912;8.204;2023-12-22T12:56:44;1.48;;;0.90;;
35022;SDS011;21214;44.912;8.204;2023-12-22T12:59:14;1.77;;;1.27;;
35022;SDS011;21214;44.912;8.204;2023-12-22T13:01:41;1.90;;;1.60;;
35022;SDS011;21214;44.912;8.204;2023-12-22T13:04:07;1.15;;;0.98;;
35022;SDS011;21214;44.912;8.204;2023-12-22T13:06:33;2.17;;;1.02;;
35022;SDS011;21214;44.912;8.204;2023-12-22T13:08:59;1.10;;;1.00;;
35022;SDS011;21214;44.912;8.204;2023-12-22T13:11:25;2.05;;;1.10;;
35022;SDS011;21214;44.912;8.204;2023-12-22T13:13:52;1.17;;;1.08;;
35022;SDS011;21214;44.912;8.204;2023-12-22T13:16:19;1.70;;;0.80;;
35022;SDS011;21214;44.912;8.204;2023-12-22T13:18:46;2.65;;;0.90;;
35022;SDS011;21214;44.912;8.204;2023-12-22T13:21:12;2.08;;;0.95;;
35022;SDS011;21214;44.912;8.204;2023-12-22T13:23:38;4.53;;;0.98;;
35022;SDS011;21214;44.912;8.204;2023-12-22T13:26:04;3.83;;;0.93;;
35022;SDS011;21214;44.912;8.204;2023-12-22T13:28:29;0.73;;;0.70;;
35022;SDS011;21214;44.912;8.204;2023-12-22T13:30:55;5.05;;;1.10;;
35022;SDS011;21214;44.912;8.204;2023-12-22T13:33:20;1.58;;;1.10;;
35022;SDS011;21214;44.912;8.204;2023-12-22T13:35:46;2.60;;;1.08;;
35022;SDS011;21214;44.912;8.204;2023-12-22T13:38:13;1.45;;;1.00;;
35022;SDS011;21214;44.912;8.204;2023-12-22T13:40:39;2.08;;;1.00;;
35022;SDS011;21214;44.912;8.204;2023-12-22T13:43:10;0.75;;;0.75;;
35022;SDS011;21214;44.912;8.204;2023-12-22T13:45:36;2.08;;;1.00;;
35022;SDS011;21214;44.912;8.204;2023-12-22T13:48:02;1.98;;;1.00;;
35022;SDS011;21214;44.912;8.204;2023-12-22T13:50:28;1.52;;;1.10;;
35022;SDS011;21214;44.912;8.204;2023-12-22T13:52:54;3.08;;;1.40;;
35022;SDS011;21214;44.912;8.204;2023-12-22T13:55:20;2.00;;;1.15;;
35022;SDS011;21214;44.912;8.204;2023-12-22T13:57:49;3.38;;;1.08;;
35022;SDS011;21214;44.912;8.204;2023-12-22T14:00:24;1.70;;;1.13;;
35022;SDS011;21214;44.912;8.204;2023-12-22T14:02:50;1.17;;;0.90;;
35022;SDS011;21214;44.912;8.204;2023-12-22T14:05:19;3.20;;;1.02;;
35022;SDS011;21214;44.912;8.204;2023-12-22T14:07:44;1.45;;;0.82;;
35022;SDS011;21214;44.912;8.204;2023-12-22T14:10:10;1.83;;;0.98;;
35022;SDS011;21214;44.912;8.204;2023-12-22T14:12:36;2.08;;;1.10;;
35022;SDS011;21214;44.912;8.204;2023-12-22T14:15:06;2.80;;;1.02;;
35022;SDS011;21214;44.912;8.204;2023-12-22T14:17:35;2.85;;;1.10;;
35022;SDS011;21214;44.912;8.204;2023-12-22T14:20:00;2.15;;;1.13;;
35022;SDS011;21214;44.912;8.204;2023-12-22T14:22:26;2.25;;;1.08;;
35022;SDS011;21214;44.912;8.204;2023-12-22T14:24:52;1.45;;;1.20;;
35022;SDS011;21214;44.912;8.204;2023-12-22T14:27:18;0.80;;;0.80;;
35022;SDS011;21214;44.912;8.204;2023-12-22T14:29:44;3.28;;;1.58;;
35022;SDS011;21214;44.912;8.204;2023-12-22T14:32:10;4.68;;;1.50;;
35022;SDS011;21214;44.912;8.204;2023-12-22T14:34:40;3.72;;;1.60;;
35022;SDS011;21214;44.912;8.204;2023-12-22T14:37:06;4.70;;;1.50;;
35022;SDS011;21214;44.912;8.204;2023-12-22T14:39:31;2.40;;;1.52;;
35022;SDS011;21214;44.912;8.204;2023-12-22T14:41:58;3.70;;;1.63;;
35022;SDS011;21214;44.912;8.204;2023-12-22T14:44:24;4.57;;;2.00;;
35022;SDS011;21214;44.912;8.204;2023-12-22T14:46:50;1.42;;;1.23;;
35022;SDS011;21214;44.912;8.204;2023-12-22T14:49:15;1.98;;;1.73;;
35022;SDS011;21214;44.912;8.204;2023-12-22T14:51:41;5.40;;;1.98;;
35022;SDS011;21214;44.912;8.204;2023-12-22T14:54:07;3.38;;;1.65;;